sensor_id;sensor_type;location;lat;lon;timestamp;P1;durP1;ratioP1;P2;durP2;ratioP2
59271;SDS011;45043;51.068;7.026;2022-08-03T00:02:46;4.73;;;2.80;;
59271;SDS011;45043;51.068;7.026;2022-08-03T00:05:46;5.47;;;3.40;;
59271;SDS011;45043;51.068;7.026;2022-08-03T00:08:46;5.27;;;3.97;;
59271;SDS011;45043;51.068;7.026;2022-08-03T00:11:47;5.60;;;3.53;;
59271;SDS011;45043;51.068;7.026;2022-08-03T00:14:47;7.37;;;4.03;;
59271;SDS011;45043;51.068;7.026;2022-08-03T00:17:47;3.67;;;3.20;;
59271;SDS011;45043;51.068;7.026;2022-08-03T00:20:48;4.50;;;3.30;;
59271;SDS011;45043;51.068;7.026;2022-08-03T00:23:48;4.47;;;3.50;;
59271;SDS011;45043;51.068;7.026;2022-08-03T00:26:49;4.83;;;3.80;;
59271;SDS011;45043;51.068;7.026;2022-08-03T00:29:49;5.30;;;3.47;;
59271;SDS011;45043;51.068;7.026;2022-08-03T00:32:50;4.33;;;3.50;;
59271;SDS011;45043;51.068;7.026;2022-08-03T00:35:50;4.00;;;3.40;;
59271;SDS011;45043;51.068;7.026;2022-08-03T00:38:51;5.03;;;3.43;;
59271;SDS011;45043;51.068;7.026;2022-08-03T00:41:51;5.73;;;3.57;;
59271;SDS011;45043;51.068;7.026;2022-08-03T00:44:52;3.47;;;3.17;;
59271;SDS011;45043;51.068;7.026;2022-08-03T00:47:52;5.90;;;3.30;;
59271;SDS011;45043;51.068;7.026;2022-08-03T00:50:53;4.23;;;3.33;;
59271;SDS011;45043;51.068;7.026;2022-08-03T00:53:54;3.57;;;3.20;;
59271;SDS011;45043;51.068;7.026;2022-08-03T00:56:54;3.63;;;2.80;;
59271;SDS011;45043;51.068;7.026;2022-08-03T00:59:54;7.50;;;3.20;;
59271;SDS011;45043;51.068;7.026;2022-08-03T01:02:55;5.50;;;3.23;;
59271;SDS011;45043;51.068;7.026;2022-08-03T01:16:05;4.07;;;3.10;;
59271;SDS011;45043;51.068;7.026;2022-08-03T01:22:35;2.97;;;2.70;;
59271;SDS011;45043;51.068;7.026;2022-08-03T01:33:02;4.60;;;2.97;;
59271;SDS011;45043;51.068;7.026;2022-08-03T01:36:12;3.30;;;3.00;;
59271;SDS011;45043;51.068;7.026;2022-08-03T01:39:15;5.37;;;2.97;;
59271;SDS011;45043;51.068;7.026;2022-08-03T01:42:17;4.53;;;3.40;;
59271;SDS011;45043;51.068;7.026;2022-08-03T01:45:19;3.93;;;2.90;;
59271;SDS011;45043;51.068;7.026;2022-08-03T01:48:25;3.47;;;3.03;;
59271;SDS011;45043;51.068;7.026;2022-08-03T01:51:27;3.47;;;3.17;;
59271;SDS011;45043;51.068;7.026;2022-08-03T01:54:28;6.00;;;3.00;;
59271;SDS011;45043;51.068;7.026;2022-08-03T01:57:30;3.53;;;3.17;;
59271;SDS011;45043;51.068;7.026;2022-08-03T02:00:30;3.83;;;3.33;;
59271;SDS011;45043;51.068;7.026;2022-08-03T02:03:33;5.27;;;3.07;;
59271;SDS011;45043;51.068;7.026;2022-08-03T02:06:36;3.70;;;3.10;;
59271;SDS011;45043;51.068;7.026;2022-08-03T02:09:39;3.47;;;3.00;;
59271;SDS011;45043;51.068;7.026;2022-08-03T02:12:43;4.70;;;3.10;;
59271;SDS011;45043;51.068;7.026;2022-08-03T02:15:45;3.67;;;2.97;;
59271;SDS011;45043;51.068;7.026;2022-08-03T02:18:47;8.50;;;3.13;;
59271;SDS011;45043;51.068;7.026;2022-08-03T02:21:47;5.33;;;3.53;;
59271;SDS011;45043;51.068;7.026;2022-08-03T02:24:49;3.90;;;3.10;;
59271;SDS011;45043;51.068;7.026;2022-08-03T02:27:50;3.20;;;2.90;;
59271;SDS011;45043;51.068;7.026;2022-08-03T02:30:54;5.70;;;3.27;;
59271;SDS011;45043;51.068;7.026;2022-08-03T02:33:58;3.33;;;2.97;;
59271;SDS011;45043;51.068;7.026;2022-08-03T02:37:02;3.03;;;2.73;;
59271;SDS011;45043;51.068;7.026;2022-08-03T02:40:05;3.00;;;2.80;;
59271;SDS011;45043;51.068;7.026;2022-08-03T02:43:09;3.10;;;2.90;;
59271;SDS011;45043;51.068;7.026;2022-08-03T02:46:12;3.83;;;3.40;;
59271;SDS011;45043;51.068;7.026;2022-08-03T02:49:20;3.20;;;2.77;;
59271;SDS011;45043;51.068;7.026;2022-08-03T02:52:23;3.60;;;2.90;;
59271;SDS011;45043;51.068;7.026;2022-08-03T02:55:26;4.23;;;3.10;;
59271;SDS011;45043;51.068;7.026;2022-08-03T02:58:29;3.90;;;3.30;;
59271;SDS011;45043;51.068;7.026;2022-08-03T03:01:30;3.20;;;2.90;;
59271;SDS011;45043;51.068;7.026;2022-08-03T03:04:31;3.93;;;3.00;;
59271;SDS011;45043;51.068;7.026;2022-08-03T03:07:33;3.30;;;3.00;;
59271;SDS011;45043;51.068;7.026;2022-08-03T03:10:35;3.60;;;3.30;;
59271;SDS011;45043;51.068;7.026;2022-08-03T03:13:40;3.50;;;3.20;;
59271;SDS011;45043;51.068;7.026;2022-08-03T03:16:43;4.93;;;3.47;;
59271;SDS011;45043;51.068;7.026;2022-08-03T03:19:46;3.03;;;2.83;;
59271;SDS011;45043;51.068;7.026;2022-08-03T03:22:50;5.00;;;3.20;;
59271;SDS011;45043;51.068;7.026;2022-08-03T03:25:51;7.63;;;3.50;;
59271;SDS011;45043;51.068;7.026;2022-08-03T03:28:52;4.57;;;3.10;;
59271;SDS011;45043;51.068;7.026;2022-08-03T03:31:53;5.20;;;3.47;;
59271;SDS011;45043;51.068;7.026;2022-08-03T03:34:54;5.27;;;3.20;;
59271;SDS011;45043;51.068;7.026;2022-08-03T03:37:58;3.37;;;3.07;;
59271;SDS011;45043;51.068;7.026;2022-08-03T03:40:58;3.77;;;3.27;;
59271;SDS011;45043;51.068;7.026;2022-08-03T03:43:59;3.43;;;3.00;;
59271;SDS011;45043;51.068;7.026;2022-08-03T03:47:00;3.60;;;3.30;;
59271;SDS011;45043;51.068;7.026;2022-08-03T03:50:02;6.27;;;3.17;;
59271;SDS011;45043;51.068;7.026;2022-08-03T03:53:04;4.70;;;3.40;;
59271;SDS011;45043;51.068;7.026;2022-08-03T03:56:07;4.80;;;3.30;;
59271;SDS011;45043;51.068;7.026;2022-08-03T03:59:08;6.93;;;3.33;;
59271;SDS011;45043;51.068;7.026;2022-08-03T04:02:09;3.60;;;3.30;;
59271;SDS011;45043;51.068;7.026;2022-08-03T04:05:11;4.77;;;3.33;;
59271;SDS011;45043;51.068;7.026;2022-08-03T04:08:41;4.03;;;3.60;;
59271;SDS011;45043;51.068;7.026;2022-08-03T04:11:59;3.90;;;3.43;;
59271;SDS011;45043;51.068;7.026;2022-08-03T04:15:01;5.07;;;3.30;;
59271;SDS011;45043;51.068;7.026;2022-08-03T04:18:03;4.37;;;3.70;;
59271;SDS011;45043;51.068;7.026;2022-08-03T04:21:07;5.40;;;3.77;;
59271;SDS011;45043;51.068;7.026;2022-08-03T04:24:12;4.17;;;3.87;;
59271;SDS011;45043;51.068;7.026;2022-08-03T04:27:15;5.63;;;3.73;;
59271;SDS011;45043;51.068;7.026;2022-08-03T04:30:20;4.00;;;3.60;;
59271;SDS011;45043;51.068;7.026;2022-08-03T04:33:21;5.27;;;4.13;;
59271;SDS011;45043;51.068;7.026;2022-08-03T04:36:25;6.07;;;5.57;;
59271;SDS011;45043;51.068;7.026;2022-08-03T04:39:30;4.70;;;4.20;;
59271;SDS011;45043;51.068;7.026;2022-08-03T04:42:32;5.20;;;3.60;;
59271;SDS011;45043;51.068;7.026;2022-08-03T04:45:33;5.40;;;4.03;;
59271;SDS011;45043;51.068;7.026;2022-08-03T04:48:35;4.30;;;3.90;;
59271;SDS011;45043;51.068;7.026;2022-08-03T04:51:39;4.77;;;4.07;;
59271;SDS011;45043;51.068;7.026;2022-08-03T04:54:41;4.83;;;3.80;;
59271;SDS011;45043;51.068;7.026;2022-08-03T04:57:42;4.30;;;3.90;;
59271;SDS011;45043;51.068;7.026;2022-08-03T05:00:42;4.70;;;4.30;;
59271;SDS011;45043;51.068;7.026;2022-08-03T05:03:45;5.53;;;3.80;;
59271;SDS011;45043;51.068;7.026;2022-08-03T05:06:46;7.13;;;4.00;;
59271;SDS011;45043;51.068;7.026;2022-08-03T05:09:46;4.23;;;3.40;;
59271;SDS011;45043;51.068;7.026;2022-08-03T05:12:47;4.83;;;3.37;;
59271;SDS011;45043;51.068;7.026;2022-08-03T05:15:47;5.70;;;3.57;;
59271;SDS011;45043;51.068;7.026;2022-08-03T05:18:48;3.93;;;3.60;;
59271;SDS011;45043;51.068;7.026;2022-08-03T05:21:48;3.87;;;3.53;;
59271;SDS011;45043;51.068;7.026;2022-08-03T05:24:49;4.17;;;3.30;;
59271;SDS011;45043;51.068;7.026;2022-08-03T05:27:50;4.80;;;3.80;;
59271;SDS011;45043;51.068;7.026;2022-08-03T05:30:50;4.87;;;3.90;;
59271;SDS011;45043;51.068;7.026;2022-08-03T05:33:51;8.13;;;3.57;;
59271;SDS011;45043;51.068;7.026;2022-08-03T05:36:51;4.10;;;3.37;;
59271;SDS011;45043;51.068;7.026;2022-08-03T05:39:52;5.10;;;3.33;;
59271;SDS011;45043;51.068;7.026;2022-08-03T05:42:52;5.17;;;3.77;;
59271;SDS011;45043;51.068;7.026;2022-08-03T05:45:53;5.17;;;3.77;;
59271;SDS011;45043;51.068;7.026;2022-08-03T05:48:54;4.27;;;3.80;;
59271;SDS011;45043;51.068;7.026;2022-08-03T05:51:54;4.10;;;3.30;;
59271;SDS011;45043;51.068;7.026;2022-08-03T05:54:55;5.33;;;3.40;;
59271;SDS011;45043;51.068;7.026;2022-08-03T05:57:57;5.50;;;3.50;;
59271;SDS011;45043;51.068;7.026;2022-08-03T06:00:58;4.80;;;3.50;;
59271;SDS011;45043;51.068;7.026;2022-08-03T06:03:59;3.77;;;3.47;;
59271;SDS011;45043;51.068;7.026;2022-08-03T06:06:59;5.27;;;3.63;;
59271;SDS011;45043;51.068;7.026;2022-08-03T06:09:59;5.67;;;3.60;;
59271;SDS011;45043;51.068;7.026;2022-08-03T06:13:03;7.93;;;3.53;;
59271;SDS011;45043;51.068;7.026;2022-08-03T06:16:04;4.07;;;3.10;;
59271;SDS011;45043;51.068;7.026;2022-08-03T06:19:05;4.63;;;3.50;;
59271;SDS011;45043;51.068;7.026;2022-08-03T06:22:05;4.93;;;4.00;;
59271;SDS011;45043;51.068;7.026;2022-08-03T06:25:06;4.97;;;3.80;;
59271;SDS011;45043;51.068;7.026;2022-08-03T06:28:07;4.40;;;3.63;;
59271;SDS011;45043;51.068;7.026;2022-08-03T06:31:07;4.67;;;3.20;;
59271;SDS011;45043;51.068;7.026;2022-08-03T06:34:08;5.03;;;3.60;;
59271;SDS011;45043;51.068;7.026;2022-08-03T06:37:08;3.87;;;3.50;;
59271;SDS011;45043;51.068;7.026;2022-08-03T06:40:10;5.23;;;3.23;;
59271;SDS011;45043;51.068;7.026;2022-08-03T06:43:16;3.70;;;3.40;;
59271;SDS011;45043;51.068;7.026;2022-08-03T06:46:16;6.73;;;3.80;;
59271;SDS011;45043;51.068;7.026;2022-08-03T06:49:17;6.93;;;3.87;;
59271;SDS011;45043;51.068;7.026;2022-08-03T06:52:18;6.30;;;3.63;;
59271;SDS011;45043;51.068;7.026;2022-08-03T06:55:18;3.97;;;3.47;;
59271;SDS011;45043;51.068;7.026;2022-08-03T06:58:18;5.37;;;3.80;;
59271;SDS011;45043;51.068;7.026;2022-08-03T07:01:19;4.00;;;3.47;;
59271;SDS011;45043;51.068;7.026;2022-08-03T07:04:19;3.93;;;3.53;;
59271;SDS011;45043;51.068;7.026;2022-08-03T07:07:20;6.07;;;3.90;;
59271;SDS011;45043;51.068;7.026;2022-08-03T07:10:20;4.97;;;3.63;;
59271;SDS011;45043;51.068;7.026;2022-08-03T07:13:21;6.30;;;3.93;;
59271;SDS011;45043;51.068;7.026;2022-08-03T07:16:21;5.13;;;4.07;;
59271;SDS011;45043;51.068;7.026;2022-08-03T07:19:22;7.63;;;4.70;;
59271;SDS011;45043;51.068;7.026;2022-08-03T07:22:22;3.57;;;3.27;;
59271;SDS011;45043;51.068;7.026;2022-08-03T07:25:23;4.43;;;3.60;;
59271;SDS011;45043;51.068;7.026;2022-08-03T07:28:24;7.33;;;3.80;;
59271;SDS011;45043;51.068;7.026;2022-08-03T07:31:25;5.97;;;3.67;;
59271;SDS011;45043;51.068;7.026;2022-08-03T07:34:25;6.70;;;3.57;;
59271;SDS011;45043;51.068;7.026;2022-08-03T07:37:26;4.33;;;3.63;;
59271;SDS011;45043;51.068;7.026;2022-08-03T07:40:27;4.80;;;3.63;;
59271;SDS011;45043;51.068;7.026;2022-08-03T07:43:28;5.57;;;3.30;;
59271;SDS011;45043;51.068;7.026;2022-08-03T07:46:29;4.27;;;3.87;;
59271;SDS011;45043;51.068;7.026;2022-08-03T07:49:29;4.13;;;3.07;;
59271;SDS011;45043;51.068;7.026;2022-08-03T07:52:30;3.97;;;3.20;;
59271;SDS011;45043;51.068;7.026;2022-08-03T07:55:49;4.13;;;3.27;;
59271;SDS011;45043;51.068;7.026;2022-08-03T07:58:50;6.17;;;3.33;;
59271;SDS011;45043;51.068;7.026;2022-08-03T08:01:51;8.37;;;3.10;;
59271;SDS011;45043;51.068;7.026;2022-08-03T08:04:52;6.53;;;2.80;;
59271;SDS011;45043;51.068;7.026;2022-08-03T08:07:53;5.50;;;2.80;;
59271;SDS011;45043;51.068;7.026;2022-08-03T08:10:54;6.97;;;3.17;;
59271;SDS011;45043;51.068;7.026;2022-08-03T08:13:55;5.13;;;3.03;;
59271;SDS011;45043;51.068;7.026;2022-08-03T08:16:55;6.23;;;3.07;;
59271;SDS011;45043;51.068;7.026;2022-08-03T08:19:56;6.60;;;3.00;;
59271;SDS011;45043;51.068;7.026;2022-08-03T08:23:00;3.63;;;2.63;;
59271;SDS011;45043;51.068;7.026;2022-08-03T08:26:02;5.40;;;2.80;;
59271;SDS011;45043;51.068;7.026;2022-08-03T08:29:03;4.80;;;3.00;;
59271;SDS011;45043;51.068;7.026;2022-08-03T08:32:04;4.83;;;2.60;;
59271;SDS011;45043;51.068;7.026;2022-08-03T08:35:05;3.97;;;2.93;;
59271;SDS011;45043;51.068;7.026;2022-08-03T08:38:06;3.20;;;2.83;;
59271;SDS011;45043;51.068;7.026;2022-08-03T08:41:07;3.93;;;2.77;;
59271;SDS011;45043;51.068;7.026;2022-08-03T08:44:09;4.73;;;2.97;;
59271;SDS011;45043;51.068;7.026;2022-08-03T08:47:10;4.53;;;3.17;;
59271;SDS011;45043;51.068;7.026;2022-08-03T08:50:12;8.57;;;3.13;;
59271;SDS011;45043;51.068;7.026;2022-08-03T08:53:14;4.10;;;3.07;;
59271;SDS011;45043;51.068;7.026;2022-08-03T08:56:16;3.60;;;3.03;;
59271;SDS011;45043;51.068;7.026;2022-08-03T08:59:19;4.80;;;3.30;;
59271;SDS011;45043;51.068;7.026;2022-08-03T09:02:24;4.70;;;3.30;;
59271;SDS011;45043;51.068;7.026;2022-08-03T09:05:28;4.97;;;3.13;;
59271;SDS011;45043;51.068;7.026;2022-08-03T09:08:32;4.43;;;3.20;;
59271;SDS011;45043;51.068;7.026;2022-08-03T09:11:32;3.90;;;2.60;;
59271;SDS011;45043;51.068;7.026;2022-08-03T09:14:33;5.90;;;2.90;;
59271;SDS011;45043;51.068;7.026;2022-08-03T09:17:39;6.50;;;3.23;;
59271;SDS011;45043;51.068;7.026;2022-08-03T09:20:40;4.50;;;3.17;;
59271;SDS011;45043;51.068;7.026;2022-08-03T09:23:44;3.67;;;3.07;;
59271;SDS011;45043;51.068;7.026;2022-08-03T09:26:48;3.47;;;3.17;;
59271;SDS011;45043;51.068;7.026;2022-08-03T09:29:53;5.33;;;3.30;;
59271;SDS011;45043;51.068;7.026;2022-08-03T09:32:58;3.37;;;2.90;;
59271;SDS011;45043;51.068;7.026;2022-08-03T09:36:04;6.23;;;3.80;;
59271;SDS011;45043;51.068;7.026;2022-08-03T09:39:11;4.63;;;3.50;;
59271;SDS011;45043;51.068;7.026;2022-08-03T09:42:18;6.80;;;3.67;;
59271;SDS011;45043;51.068;7.026;2022-08-03T09:45:28;5.50;;;3.03;;
59271;SDS011;45043;51.068;7.026;2022-08-03T09:48:34;3.50;;;3.20;;
59271;SDS011;45043;51.068;7.026;2022-08-03T09:51:39;5.97;;;3.13;;
59271;SDS011;45043;51.068;7.026;2022-08-03T09:54:42;3.83;;;3.23;;
59271;SDS011;45043;51.068;7.026;2022-08-03T09:57:42;5.70;;;3.40;;
59271;SDS011;45043;51.068;7.026;2022-08-03T10:01:00;4.03;;;3.43;;
59271;SDS011;45043;51.068;7.026;2022-08-03T10:04:03;6.73;;;3.00;;
59271;SDS011;45043;51.068;7.026;2022-08-03T10:07:08;5.00;;;3.20;;
59271;SDS011;45043;51.068;7.026;2022-08-03T10:10:09;7.43;;;3.50;;
59271;SDS011;45043;51.068;7.026;2022-08-03T10:13:12;5.07;;;3.40;;
59271;SDS011;45043;51.068;7.026;2022-08-03T10:16:13;4.73;;;3.40;;
59271;SDS011;45043;51.068;7.026;2022-08-03T10:19:14;4.23;;;3.30;;
59271;SDS011;45043;51.068;7.026;2022-08-03T10:22:17;5.10;;;3.07;;
59271;SDS011;45043;51.068;7.026;2022-08-03T10:25:20;6.97;;;3.33;;
59271;SDS011;45043;51.068;7.026;2022-08-03T10:28:22;6.07;;;2.93;;
59271;SDS011;45043;51.068;7.026;2022-08-03T10:31:24;4.10;;;3.30;;
59271;SDS011;45043;51.068;7.026;2022-08-03T10:34:32;6.40;;;3.93;;
59271;SDS011;45043;51.068;7.026;2022-08-03T10:37:43;4.57;;;2.97;;
59271;SDS011;45043;51.068;7.026;2022-08-03T10:40:48;6.80;;;3.93;;
59271;SDS011;45043;51.068;7.026;2022-08-03T10:43:57;4.17;;;3.33;;
59271;SDS011;45043;51.068;7.026;2022-08-03T10:47:02;3.03;;;2.73;;
59271;SDS011;45043;51.068;7.026;2022-08-03T10:50:03;4.33;;;3.20;;
59271;SDS011;45043;51.068;7.026;2022-08-03T10:53:05;4.53;;;3.33;;
59271;SDS011;45043;51.068;7.026;2022-08-03T10:56:25;3.20;;;2.90;;
59271;SDS011;45043;51.068;7.026;2022-08-03T11:03:01;9.40;;;3.20;;
59271;SDS011;45043;51.068;7.026;2022-08-03T11:06:15;14.07;;;3.50;;
59271;SDS011;45043;51.068;7.026;2022-08-03T11:09:25;11.37;;;3.10;;
59271;SDS011;45043;51.068;7.026;2022-08-03T11:12:40;7.57;;;3.00;;
59271;SDS011;45043;51.068;7.026;2022-08-03T11:15:42;9.93;;;3.30;;
59271;SDS011;45043;51.068;7.026;2022-08-03T11:18:58;6.20;;;3.00;;
59271;SDS011;45043;51.068;7.026;2022-08-03T11:21:59;11.83;;;3.40;;
59271;SDS011;45043;51.068;7.026;2022-08-03T11:25:00;12.37;;;3.47;;
59271;SDS011;45043;51.068;7.026;2022-08-03T11:31:43;6.30;;;3.43;;
59271;SDS011;45043;51.068;7.026;2022-08-03T11:38:08;9.70;;;3.27;;
59271;SDS011;45043;51.068;7.026;2022-08-03T11:41:13;8.00;;;3.40;;
59271;SDS011;45043;51.068;7.026;2022-08-03T11:44:40;12.37;;;3.10;;
59271;SDS011;45043;51.068;7.026;2022-08-03T11:47:41;11.20;;;3.10;;
59271;SDS011;45043;51.068;7.026;2022-08-03T11:50:42;5.47;;;2.97;;
59271;SDS011;45043;51.068;7.026;2022-08-03T11:53:44;5.07;;;3.13;;
59271;SDS011;45043;51.068;7.026;2022-08-03T11:56:47;6.83;;;2.90;;
59271;SDS011;45043;51.068;7.026;2022-08-03T11:59:48;7.70;;;2.90;;
59271;SDS011;45043;51.068;7.026;2022-08-03T12:02:56;5.20;;;2.63;;
59271;SDS011;45043;51.068;7.026;2022-08-03T12:06:08;4.80;;;2.67;;
59271;SDS011;45043;51.068;7.026;2022-08-03T12:09:14;3.83;;;3.03;;
59271;SDS011;45043;51.068;7.026;2022-08-03T12:12:15;7.13;;;2.97;;
59271;SDS011;45043;51.068;7.026;2022-08-03T12:15:15;7.90;;;3.20;;
59271;SDS011;45043;51.068;7.026;2022-08-03T12:18:16;4.03;;;2.60;;
59271;SDS011;45043;51.068;7.026;2022-08-03T12:21:18;6.80;;;3.00;;
59271;SDS011;45043;51.068;7.026;2022-08-03T12:24:23;7.03;;;3.03;;
59271;SDS011;45043;51.068;7.026;2022-08-03T12:27:27;3.97;;;3.10;;
59271;SDS011;45043;51.068;7.026;2022-08-03T12:30:30;5.07;;;2.97;;
59271;SDS011;45043;51.068;7.026;2022-08-03T12:33:31;4.90;;;2.50;;
59271;SDS011;45043;51.068;7.026;2022-08-03T12:36:53;5.80;;;2.90;;
59271;SDS011;45043;51.068;7.026;2022-08-03T12:39:57;7.83;;;2.97;;
59271;SDS011;45043;51.068;7.026;2022-08-03T12:43:00;3.77;;;2.90;;
59271;SDS011;45043;51.068;7.026;2022-08-03T12:46:10;3.83;;;2.90;;
59271;SDS011;45043;51.068;7.026;2022-08-03T12:49:13;6.13;;;2.63;;
59271;SDS011;45043;51.068;7.026;2022-08-03T12:52:16;4.63;;;2.70;;
59271;SDS011;45043;51.068;7.026;2022-08-03T12:55:18;3.63;;;2.50;;
59271;SDS011;45043;51.068;7.026;2022-08-03T12:58:33;3.00;;;2.33;;
59271;SDS011;45043;51.068;7.026;2022-08-03T13:01:35;4.87;;;2.60;;
59271;SDS011;45043;51.068;7.026;2022-08-03T13:04:36;3.90;;;2.50;;
59271;SDS011;45043;51.068;7.026;2022-08-03T13:07:40;2.73;;;2.37;;
59271;SDS011;45043;51.068;7.026;2022-08-03T13:10:41;2.90;;;2.60;;
59271;SDS011;45043;51.068;7.026;2022-08-03T13:13:42;2.60;;;2.40;;
59271;SDS011;45043;51.068;7.026;2022-08-03T13:16:43;4.20;;;2.60;;
59271;SDS011;45043;51.068;7.026;2022-08-03T13:19:43;2.83;;;2.50;;
59271;SDS011;45043;51.068;7.026;2022-08-03T13:22:45;3.43;;;2.40;;
59271;SDS011;45043;51.068;7.026;2022-08-03T13:25:47;3.03;;;2.40;;
59271;SDS011;45043;51.068;7.026;2022-08-03T13:28:47;3.03;;;2.40;;
59271;SDS011;45043;51.068;7.026;2022-08-03T13:31:47;2.53;;;2.33;;
59271;SDS011;45043;51.068;7.026;2022-08-03T13:34:49;2.93;;;2.60;;
59271;SDS011;45043;51.068;7.026;2022-08-03T13:37:50;3.67;;;2.50;;
59271;SDS011;45043;51.068;7.026;2022-08-03T13:40:51;4.57;;;2.57;;
59271;SDS011;45043;51.068;7.026;2022-08-03T13:43:52;2.87;;;2.20;;
59271;SDS011;45043;51.068;7.026;2022-08-03T13:46:52;4.60;;;2.40;;
59271;SDS011;45043;51.068;7.026;2022-08-03T13:49:53;5.47;;;2.40;;
59271;SDS011;45043;51.068;7.026;2022-08-03T13:52:53;6.53;;;2.90;;
59271;SDS011;45043;51.068;7.026;2022-08-03T13:55:54;6.80;;;2.70;;
59271;SDS011;45043;51.068;7.026;2022-08-03T13:58:54;10.07;;;3.43;;
59271;SDS011;45043;51.068;7.026;2022-08-03T14:01:55;7.33;;;2.63;;
59271;SDS011;45043;51.068;7.026;2022-08-03T14:04:55;5.77;;;2.80;;
59271;SDS011;45043;51.068;7.026;2022-08-03T14:07:56;6.70;;;2.80;;
59271;SDS011;45043;51.068;7.026;2022-08-03T14:10:57;3.43;;;2.43;;
59271;SDS011;45043;51.068;7.026;2022-08-03T14:13:57;7.80;;;2.57;;
59271;SDS011;45043;51.068;7.026;2022-08-03T14:16:58;5.23;;;2.40;;
59271;SDS011;45043;51.068;7.026;2022-08-03T14:19:58;10.93;;;2.93;;
59271;SDS011;45043;51.068;7.026;2022-08-03T14:22:58;3.07;;;2.20;;
59271;SDS011;45043;51.068;7.026;2022-08-03T14:25:59;5.13;;;2.60;;
59271;SDS011;45043;51.068;7.026;2022-08-03T14:29:00;6.10;;;2.30;;
59271;SDS011;45043;51.068;7.026;2022-08-03T14:32:00;4.03;;;2.30;;
59271;SDS011;45043;51.068;7.026;2022-08-03T14:35:00;4.57;;;2.30;;
59271;SDS011;45043;51.068;7.026;2022-08-03T14:38:01;3.67;;;2.40;;
59271;SDS011;45043;51.068;7.026;2022-08-03T14:41:01;3.90;;;2.40;;
59271;SDS011;45043;51.068;7.026;2022-08-03T14:44:02;4.43;;;2.30;;
59271;SDS011;45043;51.068;7.026;2022-08-03T14:47:02;6.97;;;2.40;;
59271;SDS011;45043;51.068;7.026;2022-08-03T14:50:03;4.63;;;2.70;;
59271;SDS011;45043;51.068;7.026;2022-08-03T14:53:04;3.37;;;2.30;;
59271;SDS011;45043;51.068;7.026;2022-08-03T14:56:05;4.80;;;2.23;;
59271;SDS011;45043;51.068;7.026;2022-08-03T14:59:05;3.27;;;2.47;;
59271;SDS011;45043;51.068;7.026;2022-08-03T15:02:06;2.93;;;2.27;;
59271;SDS011;45043;51.068;7.026;2022-08-03T15:05:06;2.70;;;2.17;;
59271;SDS011;45043;51.068;7.026;2022-08-03T15:08:07;3.10;;;2.27;;
59271;SDS011;45043;51.068;7.026;2022-08-03T15:11:07;2.67;;;2.23;;
59271;SDS011;45043;51.068;7.026;2022-08-03T15:14:08;3.90;;;2.27;;
59271;SDS011;45043;51.068;7.026;2022-08-03T15:17:08;3.10;;;2.50;;
59271;SDS011;45043;51.068;7.026;2022-08-03T15:20:09;3.00;;;2.63;;
59271;SDS011;45043;51.068;7.026;2022-08-03T15:23:10;2.27;;;1.90;;
59271;SDS011;45043;51.068;7.026;2022-08-03T15:26:12;5.87;;;2.10;;
59271;SDS011;45043;51.068;7.026;2022-08-03T15:29:12;6.05;;;1.90;;
59271;SDS011;45043;51.068;7.026;2022-08-03T15:32:13;2.05;;;1.80;;
59271;SDS011;45043;51.068;7.026;2022-08-03T15:35:13;3.45;;;1.95;;
59271;SDS011;45043;51.068;7.026;2022-08-03T15:38:14;7.00;;;2.10;;
59271;SDS011;45043;51.068;7.026;2022-08-03T15:41:14;2.50;;;2.00;;
59271;SDS011;45043;51.068;7.026;2022-08-03T15:44:18;3.13;;;2.10;;
59271;SDS011;45043;51.068;7.026;2022-08-03T15:47:19;4.00;;;1.88;;
59271;SDS011;45043;51.068;7.026;2022-08-03T15:50:19;4.32;;;1.80;;
59271;SDS011;45043;51.068;7.026;2022-08-03T15:53:20;5.05;;;1.77;;
59271;SDS011;45043;51.068;7.026;2022-08-03T15:56:20;6.75;;;1.88;;
59271;SDS011;45043;51.068;7.026;2022-08-03T15:59:21;3.13;;;1.73;;
59271;SDS011;45043;51.068;7.026;2022-08-03T16:02:21;3.25;;;1.80;;
59271;SDS011;45043;51.068;7.026;2022-08-03T16:05:21;4.18;;;1.95;;
59271;SDS011;45043;51.068;7.026;2022-08-03T16:08:22;2.97;;;1.80;;
59271;SDS011;45043;51.068;7.026;2022-08-03T16:11:22;7.75;;;2.08;;
59271;SDS011;45043;51.068;7.026;2022-08-03T16:14:23;2.75;;;1.70;;
59271;SDS011;45043;51.068;7.026;2022-08-03T16:17:23;4.55;;;2.10;;
59271;SDS011;45043;51.068;7.026;2022-08-03T16:20:24;6.25;;;1.92;;
59271;SDS011;45043;51.068;7.026;2022-08-03T16:23:24;4.43;;;2.03;;
59271;SDS011;45043;51.068;7.026;2022-08-03T16:26:25;3.70;;;1.95;;
59271;SDS011;45043;51.068;7.026;2022-08-03T16:29:25;6.03;;;1.70;;
59271;SDS011;45043;51.068;7.026;2022-08-03T16:32:26;6.20;;;2.00;;
59271;SDS011;45043;51.068;7.026;2022-08-03T16:35:26;3.25;;;1.90;;
59271;SDS011;45043;51.068;7.026;2022-08-03T16:38:27;6.13;;;2.10;;
59271;SDS011;45043;51.068;7.026;2022-08-03T16:41:27;4.60;;;1.98;;
59271;SDS011;45043;51.068;7.026;2022-08-03T16:44:29;6.93;;;1.75;;
59271;SDS011;45043;51.068;7.026;2022-08-03T16:47:30;3.85;;;1.55;;
59271;SDS011;45043;51.068;7.026;2022-08-03T16:50:31;5.05;;;1.80;;
59271;SDS011;45043;51.068;7.026;2022-08-03T16:53:31;3.13;;;1.50;;
59271;SDS011;45043;51.068;7.026;2022-08-03T16:56:32;2.33;;;1.80;;
59271;SDS011;45043;51.068;7.026;2022-08-03T16:59:33;3.22;;;1.67;;
59271;SDS011;45043;51.068;7.026;2022-08-03T17:02:33;4.30;;;1.90;;
59271;SDS011;45043;51.068;7.026;2022-08-03T17:05:35;5.20;;;1.83;;
59271;SDS011;45043;51.068;7.026;2022-08-03T17:08:35;4.13;;;1.70;;
59271;SDS011;45043;51.068;7.026;2022-08-03T17:11:42;2.08;;;1.52;;
59271;SDS011;45043;51.068;7.026;2022-08-03T17:14:44;4.80;;;1.60;;
59271;SDS011;45043;51.068;7.026;2022-08-03T17:17:52;5.45;;;1.63;;
59271;SDS011;45043;51.068;7.026;2022-08-03T17:21:03;2.38;;;1.50;;
59271;SDS011;45043;51.068;7.026;2022-08-03T17:24:09;5.45;;;1.75;;
59271;SDS011;45043;51.068;7.026;2022-08-03T17:27:24;4.13;;;1.67;;
59271;SDS011;45043;51.068;7.026;2022-08-03T17:30:30;2.38;;;1.45;;
59271;SDS011;45043;51.068;7.026;2022-08-03T17:33:53;2.05;;;1.30;;
59271;SDS011;45043;51.068;7.026;2022-08-03T17:36:54;3.03;;;1.50;;
59271;SDS011;45043;51.068;7.026;2022-08-03T17:39:55;4.97;;;1.70;;
59271;SDS011;45043;51.068;7.026;2022-08-03T17:42:55;2.70;;;1.48;;
59271;SDS011;45043;51.068;7.026;2022-08-03T17:45:56;4.15;;;1.30;;
59271;SDS011;45043;51.068;7.026;2022-08-03T17:48:58;5.72;;;1.50;;
59271;SDS011;45043;51.068;7.026;2022-08-03T17:52:05;6.32;;;1.48;;
59271;SDS011;45043;51.068;7.026;2022-08-03T17:58:23;3.50;;;1.60;;
59271;SDS011;45043;51.068;7.026;2022-08-03T18:01:38;4.20;;;1.20;;
59271;SDS011;45043;51.068;7.026;2022-08-03T18:05:05;2.30;;;1.40;;
59271;SDS011;45043;51.068;7.026;2022-08-03T18:08:07;1.42;;;1.33;;
59271;SDS011;45043;51.068;7.026;2022-08-03T18:11:12;2.50;;;1.40;;
59271;SDS011;45043;51.068;7.026;2022-08-03T18:14:26;3.30;;;1.65;;
59271;SDS011;45043;51.068;7.026;2022-08-03T18:17:44;2.28;;;1.20;;
59271;SDS011;45043;51.068;7.026;2022-08-03T18:20:54;3.55;;;1.52;;
59271;SDS011;45043;51.068;7.026;2022-08-03T18:23:56;1.95;;;1.30;;
59271;SDS011;45043;51.068;7.026;2022-08-03T18:26:57;4.65;;;1.45;;
59271;SDS011;45043;51.068;7.026;2022-08-03T18:30:00;2.72;;;1.20;;
59271;SDS011;45043;51.068;7.026;2022-08-03T18:33:00;2.22;;;1.42;;
59271;SDS011;45043;51.068;7.026;2022-08-03T18:36:02;3.47;;;1.50;;
59271;SDS011;45043;51.068;7.026;2022-08-03T18:39:05;5.07;;;1.40;;
59271;SDS011;45043;51.068;7.026;2022-08-03T18:42:09;3.17;;;1.63;;
59271;SDS011;45043;51.068;7.026;2022-08-03T18:45:11;2.00;;;1.13;;
59271;SDS011;45043;51.068;7.026;2022-08-03T18:51:22;1.58;;;1.25;;
59271;SDS011;45043;51.068;7.026;2022-08-03T18:54:25;2.83;;;1.40;;
59271;SDS011;45043;51.068;7.026;2022-08-03T19:04:08;5.22;;;1.40;;
59271;SDS011;45043;51.068;7.026;2022-08-03T19:07:14;5.20;;;1.40;;